KAL2180 RJFK-RKSI
Flight info
| Callsign | KAL2180 |
|---|---|
| Flight time | N/A |
| Altitude | 34000 |
| Route | SASIK Y208 BEETL G339 PSN A582 BITUX Z53 BASEM G585 GUKDO |
| Aircraft | A20N/M-SDE2E3FGHIRWXY/LB1 |
Departure
| Time | 2026-04-28 13:39 |
|---|---|
| Airport | Kagoshima Airport (RJFK) |
Arrival
| Time | N/A |
|---|---|
| Airport | Incheon International Airport (RKSI) |
| Time | Latitude | Longitude | Altitude | Speed | Heading |
|---|---|---|---|---|---|
| 2026-04-28 13:29 | 31.80626 | 130.71523 | 896 ft | 1 kts | 150° |
| 2026-04-28 13:32 | 31.80624 | 130.71524 | 896 ft | 2 kts | 150° |
| 2026-04-28 13:32 | 31.80587 | 130.71549 | 896 ft | 11 kts | 150° |
| 2026-04-28 13:32 | 31.80504 | 130.71606 | 897 ft | 18 kts | 150° |
| 2026-04-28 13:32 | 31.80388 | 130.71684 | 896 ft | 13 kts | 150° |
| 2026-04-28 13:33 | 31.80311 | 130.71736 | 896 ft | 12 kts | 150° |
| 2026-04-28 13:33 | 31.80231 | 130.71789 | 896 ft | 15 kts | 150° |
| 2026-04-28 13:33 | 31.80130 | 130.71858 | 893 ft | 18 kts | 150° |
| 2026-04-28 13:33 | 31.80024 | 130.71928 | 893 ft | 18 kts | 150° |
| 2026-04-28 13:34 | 31.79902 | 130.72011 | 889 ft | 22 kts | 150° |
| 2026-04-28 13:34 | 31.79765 | 130.72104 | 887 ft | 23 kts | 150° |
| 2026-04-28 13:34 | 31.79622 | 130.72201 | 884 ft | 25 kts | 150° |
| 2026-04-28 13:34 | 31.79468 | 130.72304 | 884 ft | 26 kts | 151° |
| 2026-04-28 13:35 | 31.79319 | 130.72401 | 883 ft | 22 kts | 150° |
| 2026-04-28 13:35 | 31.79187 | 130.72493 | 883 ft | 22 kts | 149° |
| 2026-04-28 13:35 | 31.79120 | 130.72600 | 880 ft | 12 kts | 64° |
| 2026-04-28 13:35 | 31.79151 | 130.72646 | 878 ft | 0 kts | 53° |
| 2026-04-28 13:38 | 31.79161 | 130.72662 | 877 ft | 7 kts | 52° |
| 2026-04-28 13:38 | 31.79208 | 130.72699 | 878 ft | 9 kts | 355° |
| 2026-04-28 13:38 | 31.79263 | 130.72667 | 880 ft | 8 kts | 329° |
| 2026-04-28 13:38 | 31.79299 | 130.72642 | 881 ft | 5 kts | 329° |
| 2026-04-28 13:39 | 31.79362 | 130.72598 | 882 ft | 34 kts | 329° |
| 2026-04-28 13:39 | 31.79820 | 130.72287 | 888 ft | 114 kts | 329° |
| 2026-04-28 13:39 | 31.80691 | 130.71705 | 980 ft | 168 kts | 329° |
| 2026-04-28 13:39 | 31.81684 | 130.71041 | 1582 ft | 175 kts | 329° |
| 2026-04-28 13:40 | 31.82336 | 130.70604 | 2008 ft | 182 kts | 329° |
| 2026-04-28 13:40 | 31.83870 | 130.69567 | 3061 ft | 197 kts | 328° |
| 2026-04-28 13:40 | 31.84667 | 130.69028 | 3609 ft | 202 kts | 327° |
| 2026-04-28 13:40 | 31.85865 | 130.68210 | 4443 ft | 208 kts | 327° |
| 2026-04-28 13:41 | 31.87098 | 130.67363 | 5309 ft | 212 kts | 327° |
| 2026-04-28 13:41 | 31.88419 | 130.66575 | 6203 ft | 217 kts | 341° |
| 2026-04-28 13:41 | 31.90395 | 130.66131 | 7351 ft | 222 kts | 346° |
| 2026-04-28 13:41 | 31.91427 | 130.65923 | 7963 ft | 224 kts | 348° |
| 2026-04-28 13:42 | 31.93003 | 130.65771 | 8864 ft | 229 kts | 352° |
| 2026-04-28 13:42 | 31.94600 | 130.65669 | 9683 ft | 232 kts | 353° |
| 2026-04-28 13:42 | 31.96222 | 130.65571 | 10301 ft | 243 kts | 352° |
| 2026-04-28 13:42 | 31.97975 | 130.65474 | 10793 ft | 261 kts | 352° |
| 2026-04-28 13:43 | 31.99821 | 130.65179 | 11252 ft | 273 kts | 336° |
| 2026-04-28 13:43 | 32.01634 | 130.64341 | 11731 ft | 289 kts | 332° |
| 2026-04-28 13:43 | 32.03543 | 130.63380 | 12197 ft | 309 kts | 333° |
| 2026-04-28 13:43 | 32.05598 | 130.62473 | 12651 ft | 327 kts | 334° |
| 2026-04-28 13:44 | 32.07797 | 130.61541 | 13112 ft | 343 kts | 335° |
| 2026-04-28 13:44 | 32.09984 | 130.60420 | 13557 ft | 346 kts | 322° |
| 2026-04-28 13:44 | 32.11880 | 130.58704 | 14020 ft | 346 kts | 319° |
| 2026-04-28 13:44 | 32.13908 | 130.57149 | 14468 ft | 352 kts | 323° |
| 2026-04-28 13:45 | 32.15999 | 130.55697 | 14912 ft | 355 kts | 324° |
| 2026-04-28 13:45 | 32.18125 | 130.54211 | 15363 ft | 356 kts | 323° |
| 2026-04-28 13:45 | 32.20086 | 130.52801 | 15780 ft | 358 kts | 322° |
| 2026-04-28 13:45 | 32.22191 | 130.51248 | 16225 ft | 360 kts | 322° |
| 2026-04-28 13:46 | 32.23988 | 130.49902 | 16596 ft | 361 kts | 321° |
| 2026-04-28 13:46 | 32.26115 | 130.48301 | 17057 ft | 366 kts | 321° |
| 2026-04-28 13:46 | 32.28268 | 130.46673 | 17517 ft | 368 kts | 321° |
| 2026-04-28 13:46 | 32.30427 | 130.45040 | 17875 ft | 371 kts | 321° |
| 2026-04-28 13:47 | 32.32603 | 130.43394 | 17977 ft | 371 kts | 321° |
| 2026-04-28 13:47 | 32.34748 | 130.41771 | 17982 ft | 371 kts | 321° |
| 2026-04-28 13:47 | 32.36920 | 130.40127 | 17980 ft | 371 kts | 321° |
| 2026-04-28 13:47 | 32.39029 | 130.38529 | 17978 ft | 371 kts | 321° |
| 2026-04-28 13:48 | 32.41205 | 130.36880 | 17981 ft | 372 kts | 321° |
| 2026-04-28 13:48 | 32.43543 | 130.35508 | 18018 ft | 379 kts | 332° |
| 2026-04-28 13:48 | 32.46012 | 130.34364 | 18334 ft | 385 kts | 332° |
| 2026-04-28 13:48 | 32.48512 | 130.33212 | 19090 ft | 385 kts | 332° |
| 2026-04-28 13:49 | 32.51017 | 130.32053 | 19694 ft | 389 kts | 332° |
| 2026-04-28 13:49 | 32.53555 | 130.30877 | 20253 ft | 393 kts | 332° |
| 2026-04-28 13:49 | 32.56114 | 130.29689 | 20824 ft | 397 kts | 332° |
| 2026-04-28 13:49 | 32.58694 | 130.28491 | 21380 ft | 400 kts | 332° |
| 2026-04-28 13:50 | 32.61299 | 130.27280 | 21917 ft | 404 kts | 331° |
| 2026-04-28 13:50 | 32.63924 | 130.26059 | 22448 ft | 407 kts | 331° |
| 2026-04-28 13:50 | 32.66535 | 130.24844 | 22935 ft | 411 kts | 331° |
| 2026-04-28 13:50 | 32.69053 | 130.23670 | 23400 ft | 414 kts | 331° |
| 2026-04-28 13:51 | 32.70576 | 130.22959 | 23687 ft | 416 kts | 331° |
| 2026-04-28 13:51 | 32.73279 | 130.21698 | 24203 ft | 418 kts | 331° |
| 2026-04-28 13:51 | 32.75995 | 130.20431 | 24698 ft | 421 kts | 331° |
| 2026-04-28 13:51 | 32.78729 | 130.19154 | 25193 ft | 424 kts | 331° |
| 2026-04-28 13:52 | 32.81484 | 130.17868 | 25670 ft | 426 kts | 331° |
| 2026-04-28 13:52 | 32.84252 | 130.16573 | 26132 ft | 428 kts | 331° |
| 2026-04-28 13:52 | 32.87031 | 130.15272 | 26584 ft | 430 kts | 331° |
| 2026-04-28 13:52 | 32.89824 | 130.13964 | 27013 ft | 432 kts | 330° |
| 2026-04-28 13:53 | 32.92631 | 130.12659 | 27452 ft | 435 kts | 332° |
| 2026-04-28 13:53 | 32.95486 | 130.11411 | 27873 ft | 438 kts | 332° |
| 2026-04-28 13:53 | 32.98322 | 130.10188 | 28292 ft | 440 kts | 332° |
| 2026-04-28 13:53 | 33.01208 | 130.08951 | 28702 ft | 442 kts | 332° |
| 2026-04-28 13:54 | 33.04114 | 130.07699 | 28951 ft | 446 kts | 332° |
| 2026-04-28 13:54 | 33.07037 | 130.06438 | 29290 ft | 449 kts | 332° |
| 2026-04-28 13:54 | 33.09978 | 130.05170 | 29682 ft | 449 kts | 332° |
| 2026-04-28 13:54 | 33.12923 | 130.03907 | 30088 ft | 451 kts | 332° |
| 2026-04-28 13:55 | 33.15880 | 130.02643 | 30428 ft | 453 kts | 332° |
| 2026-04-28 13:55 | 33.18856 | 130.01372 | 30762 ft | 455 kts | 332° |
| 2026-04-28 13:55 | 33.21848 | 130.00093 | 31095 ft | 458 kts | 332° |
| 2026-04-28 13:55 | 33.24849 | 129.98819 | 31473 ft | 458 kts | 332° |
| 2026-04-28 13:56 | 33.27894 | 129.97654 | 31906 ft | 462 kts | 336° |
| 2026-04-28 13:56 | 33.30928 | 129.96794 | 32338 ft | 465 kts | 340° |
| 2026-04-28 13:56 | 33.34148 | 129.96023 | 32761 ft | 464 kts | 340° |
| 2026-04-28 13:56 | 33.37270 | 129.95292 | 33137 ft | 463 kts | 340° |
| 2026-04-28 13:57 | 33.40424 | 129.94555 | 33549 ft | 461 kts | 340° |
| 2026-04-28 13:57 | 33.43568 | 129.93832 | 33914 ft | 460 kts | 340° |
| 2026-04-28 13:57 | 33.46703 | 129.93118 | 34036 ft | 457 kts | 340° |
| 2026-04-28 13:57 | 33.49824 | 129.92416 | 34055 ft | 456 kts | 340° |
| 2026-04-28 13:58 | 33.56070 | 129.91010 | 34054 ft | 457 kts | 340° |
| 2026-04-28 13:58 | 33.62321 | 129.89613 | 34055 ft | 457 kts | 340° |
| 2026-04-28 13:59 | 33.68637 | 129.88674 | 34048 ft | 465 kts | 346° |
| 2026-04-28 13:59 | 33.75084 | 129.88051 | 34046 ft | 465 kts | 346° |
| 2026-04-28 14:00 | 33.81498 | 129.87421 | 34034 ft | 464 kts | 346° |
| 2026-04-28 14:00 | 33.87938 | 129.86779 | 34045 ft | 464 kts | 346° |
| 2026-04-28 14:01 | 33.94367 | 129.86135 | 34047 ft | 464 kts | 346° |
| 2026-04-28 14:01 | 34.00802 | 129.85491 | 34052 ft | 464 kts | 346° |
| 2026-04-28 14:02 | 34.07203 | 129.84847 | 34052 ft | 464 kts | 346° |
| 2026-04-28 14:02 | 34.13639 | 129.84200 | 34053 ft | 464 kts | 346° |
| 2026-04-28 14:03 | 34.20079 | 129.83551 | 34053 ft | 464 kts | 346° |
| 2026-04-28 14:03 | 34.23229 | 129.83010 | 34051 ft | 453 kts | 336° |
| 2026-04-28 14:03 | 34.26187 | 129.81873 | 34051 ft | 439 kts | 327° |
| 2026-04-28 14:04 | 34.28867 | 129.80228 | 34050 ft | 427 kts | 319° |
| 2026-04-28 14:04 | 34.31250 | 129.78159 | 34048 ft | 418 kts | 312° |
| 2026-04-28 14:04 | 34.35811 | 129.73781 | 34053 ft | 419 kts | 313° |
| 2026-04-28 14:05 | 34.40358 | 129.69434 | 34064 ft | 419 kts | 313° |